createdAt,value
2022-08-09T00:01:54.966Z,0.32
2022-08-09T00:04:34.242Z,0.40
2022-08-09T00:07:07.651Z,0.00
2022-08-09T00:09:40.234Z,0.00
2022-08-09T00:12:15.443Z,0.00
2022-08-09T00:15:06.609Z,0.10
2022-08-09T00:18:05.861Z,0.08
2022-08-09T00:20:25.221Z,0.00
2022-08-09T00:22:54.363Z,0.10
2022-08-09T00:25:32.729Z,0.03
2022-08-09T00:28:03.939Z,0.00
2022-08-09T00:30:35.637Z,0.10
2022-08-09T00:33:05.374Z,0.10
2022-08-09T00:35:42.972Z,0.00
2022-08-09T00:38:15.311Z,0.00
2022-08-09T00:40:53.149Z,0.00
2022-08-09T00:44:16.791Z,0.00
2022-08-09T00:46:14.517Z,0.00
2022-08-09T00:49:01.767Z,0.00
2022-08-09T00:51:33.826Z,0.00
2022-08-09T00:54:12.546Z,0.00
2022-08-09T00:56:44.607Z,0.00
2022-08-09T00:59:14.605Z,0.00
2022-08-09T01:02:03.028Z,0.00
2022-08-09T01:04:44.041Z,0.00
2022-08-09T01:08:00.434Z,0.00
2022-08-09T01:13:42.032Z,0.00
2022-08-09T01:16:25.475Z,0.15
2022-08-09T01:19:01.962Z,0.00
2022-08-09T01:22:12.364Z,0.35
2022-08-09T01:25:17.638Z,0.00
2022-08-09T01:27:53.362Z,0.00
2022-08-09T01:30:28.673Z,0.00
2022-08-09T01:33:09.954Z,0.00
2022-08-09T01:35:57.451Z,0.00
2022-08-09T01:38:32.314Z,0.00
2022-08-09T01:41:14.539Z,0.00
2022-08-09T01:43:52.516Z,0.65
2022-08-09T01:46:30.325Z,0.00
2022-08-09T01:49:18.691Z,0.10
2022-08-09T01:51:54.741Z,0.10
2022-08-09T01:54:38.134Z,0.00
2022-08-09T01:57:17.184Z,0.00
2022-08-09T01:59:52.452Z,0.10
2022-08-09T02:02:30.873Z,0.10
2022-08-09T02:05:15.160Z,0.10
2022-08-09T02:08:38.550Z,0.00
2022-08-09T02:10:51.023Z,0.00
2022-08-09T02:13:26.303Z,0.57
2022-08-09T02:16:08.764Z,0.00
2022-08-09T02:18:42.764Z,0.03
2022-08-09T02:21:17.047Z,0.00
2022-08-09T02:23:55.273Z,0.10
2022-08-09T02:29:04.034Z,0.00
2022-08-09T02:31:36.627Z,0.20
2022-08-09T02:34:40.802Z,0.00
2022-08-09T02:37:06.945Z,0.08
2022-08-09T02:39:44.576Z,0.00
2022-08-09T02:42:35.687Z,0.00
2022-08-09T02:45:12.573Z,0.00
2022-08-09T02:47:57.256Z,0.10
2022-08-09T02:50:34.099Z,0.00
2022-08-09T02:53:08.942Z,0.00
2022-08-09T02:55:57.315Z,0.00
2022-08-09T02:58:37.136Z,0.00
2022-08-09T03:01:15.180Z,0.20
2022-08-09T03:04:17.476Z,0.00
2022-08-09T03:06:42.429Z,0.00
2022-08-09T03:09:15.200Z,0.15
2022-08-09T03:12:06.363Z,0.00
2022-08-09T03:14:36.577Z,0.00
2022-08-09T03:17:05.988Z,0.00
2022-08-09T03:19:58.169Z,28.77
2022-08-09T03:22:25.657Z,0.03
2022-08-09T03:25:21.514Z,0.00
2022-08-09T03:27:55.401Z,0.25
2022-08-09T03:30:30.113Z,0.28
2022-08-09T03:33:17.309Z,0.00
2022-08-09T03:36:13.892Z,0.10
2022-08-09T03:38:43.479Z,0.47
2022-08-09T03:41:18.481Z,0.13
2022-08-09T03:44:03.366Z,0.10
2022-08-09T03:46:37.404Z,0.10
2022-08-09T03:49:09.761Z,0.00
2022-08-09T03:51:58.836Z,0.15
2022-08-09T03:54:38.569Z,0.20
2022-08-09T03:57:18.627Z,0.00
2022-08-09T03:59:56.147Z,0.00
2022-08-09T04:02:44.964Z,0.00
2022-08-09T04:05:14.485Z,0.67
2022-08-09T04:07:57.898Z,0.00
2022-08-09T04:10:28.421Z,0.00
2022-08-09T04:13:03.783Z,0.00
2022-08-09T04:15:40.591Z,0.00
2022-08-09T04:18:22.579Z,0.35
2022-08-09T04:20:53.807Z,0.20
2022-08-09T04:23:25.016Z,0.10
2022-08-09T04:25:55.862Z,0.03
2022-08-09T04:28:33.894Z,0.20
2022-08-09T04:31:09.859Z,0.40
2022-08-09T04:33:47.442Z,0.03
2022-08-09T04:36:26.745Z,0.30
2022-08-09T04:38:56.635Z,0.00
2022-08-09T04:41:32.867Z,0.00
2022-08-09T04:44:07.252Z,0.00
2022-08-09T04:46:58.402Z,0.65
2022-08-09T04:49:53.926Z,0.20
2022-08-09T04:52:27.455Z,0.00
2022-08-09T04:54:58.735Z,0.10
2022-08-09T04:57:53.859Z,0.00
2022-08-09T05:00:17.344Z,0.77
2022-08-09T05:02:51.628Z,0.00
2022-08-09T05:05:32.428Z,0.00
2022-08-09T05:08:14.960Z,0.15
2022-08-09T05:10:44.497Z,0.60
2022-08-09T05:13:14.415Z,0.10
2022-08-09T05:15:52.118Z,0.17
2022-08-09T05:18:50.851Z,0.38
2022-08-09T05:21:24.530Z,0.10
2022-08-09T05:24:02.048Z,0.43
2022-08-09T05:26:45.484Z,0.10
2022-08-09T05:29:21.924Z,0.10
2022-08-09T05:31:58.495Z,0.17
2022-08-09T05:34:30.815Z,0.35
2022-08-09T05:37:11.361Z,0.08
2022-08-09T05:39:43.380Z,0.00
2022-08-09T05:42:17.469Z,0.00
2022-08-09T05:44:51.830Z,0.13
2022-08-09T05:47:27.339Z,0.52
2022-08-09T05:50:29.863Z,0.10
2022-08-09T05:52:53.708Z,0.30
2022-08-09T05:55:23.966Z,1.23
2022-08-09T05:57:57.504Z,0.00
2022-08-09T06:00:29.742Z,0.10
2022-08-09T06:02:59.673Z,0.00
2022-08-09T06:05:31.372Z,0.13
2022-08-09T06:08:24.140Z,1.23
2022-08-09T06:10:58.304Z,15.55
2022-08-09T06:13:33.609Z,0.10
2022-08-09T06:16:04.792Z,0.45
2022-08-09T06:18:34.434Z,0.60
2022-08-09T06:21:04.432Z,0.00
2022-08-09T06:23:58.890Z,0.30
2022-08-09T06:26:28.140Z,0.63
2022-08-09T06:31:40.301Z,0.28
2022-08-09T06:34:23.650Z,0.00
2022-08-09T06:36:59.344Z,0.28
2022-08-09T06:39:38.851Z,0.00
2022-08-09T06:42:24.551Z,0.10
2022-08-09T06:45:04.630Z,0.00
2022-08-09T06:47:49.501Z,0.10
2022-08-09T06:50:31.199Z,0.15
2022-08-09T06:53:02.145Z,0.10
2022-08-09T06:55:33.481Z,0.20
2022-08-09T06:58:04.575Z,0.00
2022-08-09T07:00:49.456Z,0.25
2022-08-09T07:03:28.763Z,0.20
2022-08-09T07:06:04.491Z,0.10
2022-08-09T07:08:37.361Z,0.00
2022-08-09T07:11:08.804Z,1.33
2022-08-09T07:13:45.084Z,0.00
2022-08-09T07:16:42.047Z,0.05
2022-08-09T07:19:23.218Z,0.10
2022-08-09T07:21:57.803Z,0.00
2022-08-09T07:24:40.226Z,0.40
2022-08-09T07:27:26.946Z,0.10
2022-08-09T07:30:03.619Z,0.10
2022-08-09T07:32:34.845Z,0.08
2022-08-09T07:35:11.436Z,1.17
2022-08-09T07:37:45.598Z,0.17
2022-08-09T07:40:18.924Z,0.00
2022-08-09T07:42:55.763Z,0.10
2022-08-09T07:45:39.678Z,0.70
2022-08-09T07:48:25.229Z,0.20
2022-08-09T07:51:09.581Z,0.10
2022-08-09T07:54:05.240Z,0.60
2022-08-09T07:56:36.971Z,0.85
2022-08-09T07:59:15.817Z,0.03
2022-08-09T08:01:53.290Z,0.90
2022-08-09T08:04:25.446Z,0.30
2022-08-09T08:07:15.371Z,0.20
2022-08-09T08:09:54.777Z,0.13
2022-08-09T08:12:29.550Z,0.15
2022-08-09T08:14:59.973Z,1.55
2022-08-09T08:17:53.151Z,0.10
2022-08-09T08:20:29.249Z,0.30
2022-08-09T08:23:03.573Z,0.05
2022-08-09T08:25:50.399Z,0.10
2022-08-09T08:28:35.099Z,0.00
2022-08-09T08:31:10.496Z,0.00
2022-08-09T08:33:52.482Z,0.20
2022-08-09T08:36:29.008Z,0.10
2022-08-09T08:39:00.055Z,0.00
2022-08-09T08:41:50.767Z,0.25
2022-08-09T08:44:22.952Z,0.10
2022-08-09T08:47:03.191Z,0.00
2022-08-09T08:49:46.713Z,0.00
2022-08-09T08:52:50.411Z,0.00
2022-08-09T08:55:06.834Z,0.10
2022-08-09T08:57:37.287Z,0.75
2022-08-09T09:00:17.183Z,0.00
2022-08-09T09:03:11.485Z,0.32
2022-08-09T09:06:00.437Z,0.52
2022-08-09T09:08:40.880Z,0.13
2022-08-09T09:11:13.636Z,0.08
2022-08-09T09:13:57.482Z,0.00
2022-08-09T09:16:35.121Z,1.08
2022-08-09T09:19:39.677Z,0.98
2022-08-09T09:22:26.841Z,0.00
2022-08-09T09:26:02.599Z,0.08
2022-08-09T09:28:06.116Z,0.00
2022-08-09T09:30:54.978Z,0.08
2022-08-09T09:33:44.857Z,0.00
2022-08-09T09:36:20.352Z,0.25
2022-08-09T09:38:53.188Z,0.10
2022-08-09T09:41:27.839Z,1.92
2022-08-09T09:44:11.436Z,5.55
2022-08-09T09:46:50.541Z,5.30
2022-08-09T09:49:56.478Z,1.63
2022-08-09T09:52:35.800Z,0.77
2022-08-09T09:55:16.342Z,0.30
2022-08-09T09:58:15.759Z,3.10
2022-08-09T10:00:58.931Z,6.05
2022-08-09T10:03:56.358Z,4.43
2022-08-09T10:06:32.265Z,5.00
2022-08-09T10:09:11.916Z,1.25
2022-08-09T10:12:11.937Z,3.38
2022-08-09T10:14:48.057Z,0.22
2022-08-09T10:17:38.816Z,0.17
2022-08-09T10:20:26.675Z,0.52
2022-08-09T10:23:21.125Z,0.00
2022-08-09T10:26:07.260Z,0.00
2022-08-09T10:28:40.703Z,0.10
2022-08-09T10:32:27.746Z,0.70
2022-08-09T10:34:10.616Z,0.30
2022-08-09T10:36:54.866Z,0.28
2022-08-09T10:39:28.370Z,0.20
2022-08-09T10:41:57.658Z,0.10
2022-08-09T10:44:31.785Z,0.08
2022-08-09T10:50:30.828Z,0.10
2022-08-09T10:53:23.103Z,0.85
2022-08-09T10:56:11.672Z,0.10
2022-08-09T10:58:49.297Z,0.00
2022-08-09T11:03:13.337Z,0.38
2022-08-09T11:32:41.649Z,35.30
2022-08-09T11:46:57.936Z,8.48
2022-08-09T11:50:54.163Z,9.90
2022-08-09T11:53:21.434Z,10.10
2022-08-09T11:56:02.171Z,8.73
2022-08-09T11:58:33.807Z,10.93
2022-08-09T12:01:08.248Z,9.35
2022-08-09T12:03:57.216Z,9.75
2022-08-09T12:06:32.409Z,10.63
2022-08-09T12:09:17.620Z,12.07
2022-08-09T12:12:04.213Z,11.13
2022-08-09T12:14:40.826Z,14.90
2022-08-09T12:17:34.528Z,11.30
2022-08-09T12:20:21.760Z,11.55
2022-08-09T12:23:03.132Z,15.75
2022-08-09T12:25:37.498Z,16.25
2022-08-09T12:29:14.326Z,14.93
2022-08-09T12:31:30.951Z,14.95
2022-08-09T12:34:10.287Z,18.17
2022-08-09T12:36:58.702Z,24.48
2022-08-09T12:39:38.111Z,22.45
2022-08-09T12:42:16.515Z,110.78
2022-08-09T12:44:46.375Z,23.08
2022-08-09T12:47:22.992Z,15.98
2022-08-09T12:50:10.471Z,16.42
2022-08-09T12:53:02.584Z,15.48
2022-08-09T12:56:16.129Z,9.32
2022-08-09T12:58:28.025Z,11.00
2022-08-09T13:00:58.176Z,22.48
2022-08-09T13:03:53.399Z,40.90
2022-08-09T13:06:34.441Z,22.08
2022-08-09T13:09:26.514Z,19.52
2022-08-09T13:12:11.305Z,32.80
2022-08-09T13:14:48.800Z,25.60
2022-08-09T13:18:02.704Z,16.10
2022-08-09T13:20:23.698Z,13.98
2022-08-09T13:23:04.894Z,11.73
2022-08-09T13:25:54.733Z,10.93
2022-08-09T13:28:34.249Z,31.80
2022-08-09T13:32:14.143Z,12.00
2022-08-09T13:34:00.056Z,10.43
2022-08-09T13:36:40.807Z,9.80
2022-08-09T13:41:19.482Z,9.85
2022-08-09T13:42:13.499Z,9.85
2022-08-09T13:44:44.242Z,6.70
2022-08-09T13:47:31.309Z,8.82
2022-08-09T13:50:03.836Z,9.38
2022-08-09T13:52:42.613Z,13.88
2022-08-09T13:55:13.664Z,7.88
2022-08-09T13:57:53.103Z,8.68
2022-08-09T14:00:30.394Z,12.70
2022-08-09T14:03:04.047Z,9.90
2022-08-09T14:05:58.696Z,16.52
2022-08-09T14:08:32.622Z,10.70
2022-08-09T14:11:01.624Z,22.00
2022-08-09T14:14:22.795Z,12.65
2022-08-09T14:16:29.066Z,14.82
2022-08-09T14:18:59.494Z,17.50
2022-08-09T14:21:29.083Z,18.45
2022-08-09T14:24:01.251Z,26.83
2022-08-09T14:26:34.919Z,22.70
2022-08-09T14:30:15.241Z,61.10
2022-08-09T14:31:57.731Z,18.88
2022-08-09T14:34:31.816Z,16.90
2022-08-09T14:37:06.920Z,21.40
2022-08-09T14:39:45.851Z,20.52
2022-08-09T14:42:30.565Z,26.38
2022-08-09T14:46:39.056Z,19.77
2022-08-09T14:48:02.032Z,16.20
2022-08-09T14:50:34.628Z,14.90
2022-08-09T14:53:06.366Z,14.55
2022-08-09T14:55:47.774Z,16.67
2022-08-09T14:58:19.571Z,18.80
2022-08-09T15:00:51.136Z,15.52
2022-08-09T15:03:21.319Z,15.32
2022-08-09T15:05:56.721Z,24.42
2022-08-09T15:08:30.330Z,35.35
2022-08-09T15:11:00.482Z,20.15
2022-08-09T15:13:55.946Z,21.88
2022-08-09T15:16:19.073Z,37.88
2022-08-09T15:18:49.302Z,26.90
2022-08-09T15:21:57.233Z,10.52
2022-08-09T15:24:12.945Z,9.85
2022-08-09T15:26:45.913Z,10.98
2022-08-09T15:30:48.579Z,16.13
2022-08-09T15:32:04.844Z,18.50
2022-08-09T15:34:35.285Z,20.98
2022-08-09T15:37:37.321Z,17.83
2022-08-09T15:40:15.764Z,31.73
2022-08-09T15:42:51.012Z,30.38
2022-08-09T15:45:22.089Z,27.55
2022-08-09T15:48:05.511Z,20.65
2022-08-09T15:50:48.711Z,19.90
2022-08-09T15:53:18.912Z,22.05
2022-08-09T15:56:28.661Z,19.88
2022-08-09T15:59:00.209Z,19.50
2022-08-09T16:01:31.300Z,16.25
2022-08-09T16:04:13.435Z,19.30
2022-08-09T16:06:44.768Z,27.75
2022-08-09T16:09:51.132Z,19.95
2022-08-09T16:12:11.559Z,19.80
2022-08-09T16:14:40.539Z,19.10
2022-08-09T16:17:09.239Z,10.93
2022-08-09T16:19:49.447Z,11.85
2022-08-09T16:22:27.489Z,12.35
2022-08-09T16:24:57.021Z,10.10
2022-08-09T16:27:29.680Z,7.13
2022-08-09T16:30:00.973Z,10.48
2022-08-09T16:32:57.092Z,7.45
2022-08-09T16:35:57.389Z,4.95
2022-08-09T16:38:18.036Z,6.55
2022-08-09T16:40:48.619Z,20.70
2022-08-09T16:43:18.034Z,20.95
2022-08-09T16:45:46.964Z,9.57
2022-08-09T16:48:41.195Z,7.78
2022-08-09T16:51:08.319Z,10.40
2022-08-09T16:54:09.129Z,7.68
2022-08-09T16:56:32.979Z,9.80
2022-08-09T16:59:06.925Z,8.77
2022-08-09T17:01:39.711Z,6.10
2022-08-09T17:04:26.041Z,9.40
2022-08-09T17:08:41.376Z,10.88
2022-08-09T17:09:47.860Z,7.38
2022-08-09T17:12:16.597Z,6.25
2022-08-09T17:14:47.806Z,6.20
2022-08-09T17:17:27.029Z,6.43
2022-08-09T17:20:29.265Z,4.63
2022-08-09T17:22:49.899Z,9.27
2022-08-09T17:25:22.196Z,6.78
2022-08-09T17:27:54.733Z,9.68
2022-08-09T17:30:26.583Z,6.00
2022-08-09T17:33:05.009Z,6.43
2022-08-09T17:35:41.291Z,4.40
2022-08-09T17:38:32.611Z,4.78
2022-08-09T17:41:02.817Z,5.80
2022-08-09T17:43:37.024Z,8.00
2022-08-09T17:46:09.885Z,4.45
2022-08-09T17:48:51.545Z,6.15
2022-08-09T17:51:22.325Z,13.60
2022-08-09T17:53:55.473Z,6.03
2022-08-09T17:56:35.681Z,7.32
2022-08-09T17:59:09.315Z,3.50
2022-08-09T18:02:07.978Z,4.15
2022-08-09T18:04:30.493Z,2.90
2022-08-09T18:07:00.085Z,4.38
2022-08-09T18:09:40.918Z,7.68
2022-08-09T18:12:19.863Z,8.65
2022-08-09T18:14:54.560Z,7.22
2022-08-09T18:18:02.829Z,6.50
2022-08-09T18:20:53.814Z,4.10
2022-08-09T18:23:08.406Z,4.78
2022-08-09T18:25:58.404Z,4.78
2022-08-09T18:30:42.605Z,6.10
2022-08-09T18:31:32.272Z,8.05
2022-08-09T18:34:10.260Z,11.95
2022-08-09T18:36:39.182Z,16.10
2022-08-09T18:39:16.202Z,11.77
2022-08-09T18:41:52.272Z,9.23
2022-08-09T18:44:28.239Z,6.30
2022-08-09T18:47:08.132Z,4.45
2022-08-09T18:49:46.173Z,6.85
2022-08-09T18:52:18.759Z,5.47
2022-08-09T18:54:57.600Z,4.13
2022-08-09T18:57:43.295Z,4.63
2022-08-09T19:00:20.442Z,3.65
2022-08-09T19:02:51.299Z,4.53
2022-08-09T19:05:41.375Z,3.35
2022-08-09T19:08:18.326Z,4.13
2022-08-09T19:10:48.651Z,5.10
2022-08-09T19:13:38.066Z,4.85
2022-08-09T19:16:09.386Z,6.68
2022-08-09T19:18:41.076Z,3.67
2022-08-09T19:21:13.294Z,3.20
2022-08-09T19:24:32.612Z,3.03
2022-08-09T19:26:35.121Z,5.07
2022-08-09T19:29:15.117Z,4.50
2022-08-09T19:31:49.430Z,4.45
2022-08-09T19:34:24.446Z,4.50
2022-08-09T19:36:54.739Z,23.08
2022-08-09T19:39:42.851Z,3.05
2022-08-09T19:42:14.986Z,3.40
2022-08-09T19:44:49.342Z,4.22
2022-08-09T19:47:23.304Z,3.05
2022-08-09T19:50:07.863Z,3.97
2022-08-09T19:52:51.395Z,3.17
2022-08-09T19:55:30.596Z,6.90
2022-08-09T19:58:16.752Z,4.80
2022-08-09T20:00:47.444Z,4.45
2022-08-09T20:04:17.307Z,3.03
2022-08-09T20:06:22.544Z,5.60
2022-08-09T20:08:56.632Z,3.95
2022-08-09T20:11:28.092Z,9.90
2022-08-09T20:14:15.292Z,4.57
2022-08-09T20:16:53.621Z,8.82
2022-08-09T20:19:48.387Z,3.63
2022-08-09T20:22:14.143Z,4.93
2022-08-09T20:24:54.029Z,4.03
2022-08-09T20:27:23.623Z,5.47
2022-08-09T20:29:52.424Z,4.00
2022-08-09T20:32:31.341Z,4.20
2022-08-09T20:35:02.409Z,5.10
2022-08-09T20:38:18.821Z,4.35
2022-08-09T20:40:27.278Z,61.63
2022-08-09T20:42:59.852Z,9.07
2022-08-09T20:45:57.474Z,6.25
2022-08-09T20:48:21.680Z,5.15
2022-08-09T20:50:55.704Z,7.00
2022-08-09T20:53:36.798Z,3.78
2022-08-09T20:56:20.470Z,5.63
2022-08-09T20:58:58.904Z,4.20
2022-08-09T21:01:34.217Z,5.70
2022-08-09T21:05:51.662Z,5.30
2022-08-09T21:07:14.142Z,7.13
2022-08-09T21:09:56.102Z,4.50
2022-08-09T21:15:23.794Z,24.75
2022-08-09T21:18:23.027Z,18.02
2022-08-09T21:20:54.116Z,5.55
2022-08-09T21:23:47.107Z,6.68
2022-08-09T21:26:15.632Z,5.47
2022-08-09T21:28:56.033Z,5.55
2022-08-09T21:31:48.865Z,6.00
2022-08-09T21:34:18.097Z,3.65
2022-08-09T21:36:57.758Z,5.88
2022-08-09T21:39:27.911Z,5.20
2022-08-09T21:42:03.745Z,9.10
2022-08-09T21:44:35.457Z,6.63
2022-08-09T21:47:08.858Z,4.90
2022-08-09T21:49:42.620Z,6.00
2022-08-09T21:52:14.834Z,5.22
2022-08-09T21:54:50.551Z,5.55
2022-08-09T21:57:39.071Z,22.50
2022-08-09T22:00:25.520Z,8.65
2022-08-09T22:02:58.962Z,4.47
2022-08-09T22:05:36.761Z,8.35
2022-08-09T22:08:12.973Z,6.22
2022-08-09T22:11:48.917Z,8.88
2022-08-09T22:13:34.421Z,6.10
2022-08-09T22:16:07.794Z,4.03
2022-08-09T22:18:53.503Z,4.13
2022-08-09T22:21:44.671Z,4.28
2022-08-09T22:24:21.100Z,4.75
2022-08-09T22:26:54.549Z,4.13
2022-08-09T22:29:46.347Z,7.38
2022-08-09T22:32:29.700Z,7.25
2022-08-09T22:35:06.378Z,6.07
2022-08-09T22:37:49.349Z,5.00
2022-08-09T22:40:35.958Z,4.68
2022-08-09T22:43:16.219Z,7.13
2022-08-09T22:48:13.942Z,4.88
2022-08-09T22:48:50.368Z,9.13
2022-08-09T22:51:24.048Z,5.22
2022-08-09T22:54:02.389Z,4.85
2022-08-09T22:56:33.809Z,6.30
2022-08-09T22:59:05.701Z,6.60
2022-08-09T23:01:54.402Z,9.98
2022-08-09T23:04:25.482Z,5.68
2022-08-09T23:07:13.844Z,9.13
2022-08-09T23:09:43.025Z,13.40
2022-08-09T23:12:14.886Z,10.88
2022-08-09T23:14:43.567Z,18.77
2022-08-09T23:17:12.314Z,15.32
2022-08-09T23:20:06.811Z,20.08
2022-08-09T23:22:29.829Z,15.32
2022-08-09T23:24:58.734Z,16.42
2022-08-09T23:27:27.578Z,10.68
2022-08-09T23:29:56.307Z,8.90
2022-08-09T23:32:25.452Z,9.82
2022-08-09T23:34:54.432Z,9.13
2022-08-09T23:37:25.660Z,10.45
2022-08-09T23:39:54.477Z,7.55
2022-08-09T23:42:22.956Z,7.57
2022-08-09T23:44:52.066Z,7.75
2022-08-09T23:47:20.665Z,5.75
2022-08-09T23:49:49.431Z,6.63
2022-08-09T23:52:18.163Z,6.70
2022-08-09T23:54:52.196Z,6.88
2022-08-09T23:57:22.003Z,6.75
